This is the latest recevied weather packets stored in our database for station/object G8PZT. If no packets are shown the sender has not sent any weather packets the latest 10 day(s).
| Time | Temp. | Humidity | Pressure | Rain* | Wind** | Luminosity | Snow |
|---|---|---|---|---|---|---|---|
| 1788076802 | 17.22° C | 55% | - | 0 mm | - | - | - |
| 1788076719 | 16.67° C | 55% | - | 0 mm | - | - | - |
| 1788076119 | 16.11° C | 57% | - | 0 mm | - | - | - |
| 1788075602 | 16.67° C | 55% | - | 0 mm | - | - | - |
| 1788075519 | 16.67° C | 55% | - | 0 mm | - | - | - |
| 1788074919 | 16.11° C | 60% | - | 0 mm | - | - | - |
| 1788074403 | 15.56° C | 65% | - | 0 mm | - | - | - |
| 1788074319 | 15.56° C | 65% | - | 0 mm | - | - | - |
| 1788073719 | 14.44° C | 66% | - | 0 mm | - | - | - |
| 1788073202 | 15° C | 64% | - | 0 mm | - | - | - |
| 1788073119 | 15° C | 64% | - | 0 mm | - | - | - |
| 1788072520 | 15° C | 64% | - | 0 mm | - | - | - |
| 1788072003 | 15.56° C | 68% | - | 0 mm | - | - | - |
| 1788071920 | 15.56° C | 68% | - | 0 mm | - | - | - |
| 1788071320 | 15° C | 70% | - | 0 mm | - | - | - |
| 1788070803 | 13.89° C | 75% | - | 0 mm | - | - | - |
| 1788070720 | 13.89° C | 75% | - | 0 mm | - | - | - |
| 1788070120 | 13.33° C | 77% | - | 0 mm | - | - | - |
| 1788069602 | 12.78° C | 77% | - | 0 mm | - | - | - |
| 1788069520 | 12.78° C | 77% | - | 0 mm | - | - | - |
| 1788068402 | 12.78° C | 78% | - | 0 mm | - | - | - |
| 1788068319 | 12.78° C | 78% | - | 0 mm | - | - | - |
| 1788067719 | 12.78° C | 78% | - | 0 mm | - | - | - |
| 1788067203 | 12.78° C | 78% | - | 0 mm | - | - | - |
| 1788067119 | 12.78° C | 78% | - | 0 mm | - | - | - |
* Rain latest hour (hover to see other rain measurements)
** Current wind speed in m/s (hover to see current wind gust speed)